VG15 weather

White Stone Family Practice Heliport
White Stone, Virginia, United States

Public forecast

Using degrees Fahrenheit for public forecast. Weather courtesy of forecast.io.

METAR (pilot weather report)

Closest report is Middle Peninsula Regional Airport, 19.1 nm (35.3 km) WSW. Retrieved 2019/09/21 08:35 UTC (0 seconds ago):

KFYJ 210835Z AUTO 00000KT 10SM CLR 13/13 A3027 RMK AO1 T01340125

TAF (pilot weather forecast)

Closest forecast is Newport News Williamsburg International Airport, 31.1 nm (57.6 km) S. Retrieved 2019/09/21 06:42 UTC (2 hours ago):

TAF KPHF 210540Z 2106/2206 20005KT P6SM SKC FM211400 23008KT P6SM SKC FM212200 19006KT P6SM SKC